sensor_id;sensor_type;location;lat;lon;timestamp;temperature;humidity
66752;SHT31;53663;42.676;23.238;2023-12-14T00:01:15;4.33;84.76
66752;SHT31;53663;42.676;23.238;2023-12-14T00:03:41;4.30;84.97
66752;SHT31;53663;42.676;23.238;2023-12-14T00:06:11;4.29;84.79
66752;SHT31;53663;42.676;23.238;2023-12-14T00:08:36;4.30;84.75
66752;SHT31;53663;42.676;23.238;2023-12-14T00:11:06;4.24;85.06
66752;SHT31;53663;42.676;23.238;2023-12-14T00:13:32;4.38;84.74
66752;SHT31;53663;42.676;23.238;2023-12-14T00:15:58;4.34;84.71
66752;SHT31;53663;42.676;23.238;2023-12-14T00:18:23;4.44;84.52
66752;SHT31;53663;42.676;23.238;2023-12-14T00:20:49;4.34;84.60
66752;SHT31;53663;42.676;23.238;2023-12-14T00:23:15;4.31;84.73
66752;SHT31;53663;42.676;23.238;2023-12-14T00:25:40;4.14;85.25
66752;SHT31;53663;42.676;23.238;2023-12-14T00:28:06;4.25;85.28
66752;SHT31;53663;42.676;23.238;2023-12-14T00:30:31;4.38;84.87
66752;SHT31;53663;42.676;23.238;2023-12-14T00:32:57;4.40;84.71
66752;SHT31;53663;42.676;23.238;2023-12-14T00:35:22;4.20;85.17
66752;SHT31;53663;42.676;23.238;2023-12-14T00:37:48;4.24;85.12
66752;SHT31;53663;42.676;23.238;2023-12-14T00:40:13;4.14;85.75
66752;SHT31;53663;42.676;23.238;2023-12-14T00:42:39;4.21;85.40
66752;SHT31;53663;42.676;23.238;2023-12-14T00:45:05;4.21;85.28
66752;SHT31;53663;42.676;23.238;2023-12-14T00:47:30;4.10;85.49
66752;SHT31;53663;42.676;23.238;2023-12-14T00:49:56;4.29;85.29
66752;SHT31;53663;42.676;23.238;2023-12-14T00:52:21;4.31;85.30
66752;SHT31;53663;42.676;23.238;2023-12-14T00:54:47;4.37;85.11
66752;SHT31;53663;42.676;23.238;2023-12-14T00:57:13;4.31;84.90
66752;SHT31;53663;42.676;23.238;2023-12-14T00:59:38;4.31;84.93
66752;SHT31;53663;42.676;23.238;2023-12-14T01:02:05;4.36;84.70
66752;SHT31;53663;42.676;23.238;2023-12-14T01:04:31;4.34;84.84
66752;SHT31;53663;42.676;23.238;2023-12-14T01:06:57;4.31;84.74
66752;SHT31;53663;42.676;23.238;2023-12-14T01:09:23;4.36;84.65
66752;SHT31;53663;42.676;23.238;2023-12-14T01:11:48;4.43;84.59
66752;SHT31;53663;42.676;23.238;2023-12-14T01:14:13;4.41;84.37
66752;SHT31;53663;42.676;23.238;2023-12-14T01:16:39;4.41;84.49
66752;SHT31;53663;42.676;23.238;2023-12-14T01:19:05;4.51;84.32
66752;SHT31;53663;42.676;23.238;2023-12-14T01:21:33;4.55;84.14
66752;SHT31;53663;42.676;23.238;2023-12-14T01:23:59;4.51;83.86
66752;SHT31;53663;42.676;23.238;2023-12-14T01:26:26;4.58;83.72
66752;SHT31;53663;42.676;23.238;2023-12-14T01:28:52;4.51;84.05
66752;SHT31;53663;42.676;23.238;2023-12-14T01:31:18;4.48;84.12
66752;SHT31;53663;42.676;23.238;2023-12-14T01:33:44;4.47;83.72
66752;SHT31;53663;42.676;23.238;2023-12-14T01:36:11;4.44;84.02
66752;SHT31;53663;42.676;23.238;2023-12-14T01:38:37;4.44;83.94
66752;SHT31;53663;42.676;23.238;2023-12-14T01:41:03;4.41;84.18
66752;SHT31;53663;42.676;23.238;2023-12-14T01:43:28;4.44;83.92
66752;SHT31;53663;42.676;23.238;2023-12-14T01:45:54;4.45;83.87
66752;SHT31;53663;42.676;23.238;2023-12-14T01:48:19;4.44;83.94
66752;SHT31;53663;42.676;23.238;2023-12-14T01:50:45;4.45;83.80
66752;SHT31;53663;42.676;23.238;2023-12-14T01:53:10;4.47;83.71
66752;SHT31;53663;42.676;23.238;2023-12-14T01:55:36;4.44;83.90
66752;SHT31;53663;42.676;23.238;2023-12-14T01:58:01;4.48;83.80
66752;SHT31;53663;42.676;23.238;2023-12-14T02:00:49;4.50;83.81
66752;SHT31;53663;42.676;23.238;2023-12-14T02:03:16;4.47;83.73
66752;SHT31;53663;42.676;23.238;2023-12-14T02:05:42;4.29;84.32
66752;SHT31;53663;42.676;23.238;2023-12-14T02:08:08;4.33;84.67
66752;SHT31;53663;42.676;23.238;2023-12-14T02:10:34;4.38;84.53
66752;SHT31;53663;42.676;23.238;2023-12-14T02:13:01;4.48;84.34
66752;SHT31;53663;42.676;23.238;2023-12-14T02:15:27;4.60;84.13
66752;SHT31;53663;42.676;23.238;2023-12-14T02:17:53;4.64;84.04
66752;SHT31;53663;42.676;23.238;2023-12-14T02:20:18;4.64;84.06
66752;SHT31;53663;42.676;23.238;2023-12-14T02:22:51;4.71;83.86
66752;SHT31;53663;42.676;23.238;2023-12-14T02:25:17;4.82;83.58
66752;SHT31;53663;42.676;23.238;2023-12-14T02:27:43;4.83;83.55
66752;SHT31;53663;42.676;23.238;2023-12-14T02:30:10;4.83;83.44
66752;SHT31;53663;42.676;23.238;2023-12-14T02:32:35;4.92;83.36
66752;SHT31;53663;42.676;23.238;2023-12-14T02:35:01;4.93;83.28
66752;SHT31;53663;42.676;23.238;2023-12-14T02:37:27;5.02;82.99
66752;SHT31;53663;42.676;23.238;2023-12-14T02:39:53;4.99;83.12
66752;SHT31;53663;42.676;23.238;2023-12-14T02:42:18;4.85;83.50
66752;SHT31;53663;42.676;23.238;2023-12-14T02:44:44;4.86;83.43
66752;SHT31;53663;42.676;23.238;2023-12-14T02:47:10;4.93;83.36
66752;SHT31;53663;42.676;23.238;2023-12-14T02:49:35;5.02;83.07
66752;SHT31;53663;42.676;23.238;2023-12-14T02:52:01;4.97;83.29
66752;SHT31;53663;42.676;23.238;2023-12-14T02:54:26;5.03;83.16
66752;SHT31;53663;42.676;23.238;2023-12-14T02:56:51;5.05;83.15
66752;SHT31;53663;42.676;23.238;2023-12-14T02:59:17;5.09;82.89
66752;SHT31;53663;42.676;23.238;2023-12-14T03:01:42;5.10;82.91
66752;SHT31;53663;42.676;23.238;2023-12-14T03:04:08;5.15;82.73
66752;SHT31;53663;42.676;23.238;2023-12-14T03:06:33;5.00;83.19
66752;SHT31;53663;42.676;23.238;2023-12-14T03:09:00;5.00;83.16
66752;SHT31;53663;42.676;23.238;2023-12-14T03:11:25;5.05;83.04
66752;SHT31;53663;42.676;23.238;2023-12-14T03:13:51;5.09;82.76
66752;SHT31;53663;42.676;23.238;2023-12-14T03:16:18;5.02;83.14
66752;SHT31;53663;42.676;23.238;2023-12-14T03:18:43;5.10;82.67
66752;SHT31;53663;42.676;23.238;2023-12-14T03:21:09;5.18;82.37
66752;SHT31;53663;42.676;23.238;2023-12-14T03:23:35;5.16;82.36
66752;SHT31;53663;42.676;23.238;2023-12-14T03:26:01;5.12;82.34
66752;SHT31;53663;42.676;23.238;2023-12-14T03:28:27;5.10;82.63
66752;SHT31;53663;42.676;23.238;2023-12-14T03:30:52;5.16;82.49
66752;SHT31;53663;42.676;23.238;2023-12-14T03:33:18;5.15;82.57
66752;SHT31;53663;42.676;23.238;2023-12-14T03:35:43;5.19;82.25
66752;SHT31;53663;42.676;23.238;2023-12-14T03:38:13;5.09;82.61
66752;SHT31;53663;42.676;23.238;2023-12-14T03:40:39;5.10;82.59
66752;SHT31;53663;42.676;23.238;2023-12-14T03:43:05;5.03;83.05
66752;SHT31;53663;42.676;23.238;2023-12-14T03:45:30;5.12;82.83
66752;SHT31;53663;42.676;23.238;2023-12-14T03:47:56;5.15;82.60
66752;SHT31;53663;42.676;23.238;2023-12-14T03:50:22;5.13;82.54
66752;SHT31;53663;42.676;23.238;2023-12-14T03:52:47;5.19;82.32
66752;SHT31;53663;42.676;23.238;2023-12-14T03:55:13;5.19;82.39
66752;SHT31;53663;42.676;23.238;2023-12-14T03:57:40;5.10;82.63
66752;SHT31;53663;42.676;23.238;2023-12-14T04:00:09;5.08;82.82
66752;SHT31;53663;42.676;23.238;2023-12-14T04:02:35;5.15;82.86
66752;SHT31;53663;42.676;23.238;2023-12-14T04:05:00;5.13;82.65
66752;SHT31;53663;42.676;23.238;2023-12-14T04:07:26;5.08;82.91
66752;SHT31;53663;42.676;23.238;2023-12-14T04:09:51;5.12;82.94
66752;SHT31;53663;42.676;23.238;2023-12-14T04:12:17;5.12;82.95
66752;SHT31;53663;42.676;23.238;2023-12-14T04:14:42;5.12;82.90
66752;SHT31;53663;42.676;23.238;2023-12-14T04:17:08;5.05;82.96
66752;SHT31;53663;42.676;23.238;2023-12-14T04:19:34;4.97;83.58
66752;SHT31;53663;42.676;23.238;2023-12-14T04:21:59;4.97;83.38
66752;SHT31;53663;42.676;23.238;2023-12-14T04:24:25;4.93;83.67
66752;SHT31;53663;42.676;23.238;2023-12-14T04:26:50;4.92;83.70
66752;SHT31;53663;42.676;23.238;2023-12-14T04:29:15;4.89;84.06
66752;SHT31;53663;42.676;23.238;2023-12-14T04:31:41;4.97;83.52
66752;SHT31;53663;42.676;23.238;2023-12-14T04:34:06;5.10;83.09
66752;SHT31;53663;42.676;23.238;2023-12-14T04:36:37;5.20;82.78
66752;SHT31;53663;42.676;23.238;2023-12-14T04:39:03;5.36;82.00
66752;SHT31;53663;42.676;23.238;2023-12-14T04:41:28;5.44;81.62
66752;SHT31;53663;42.676;23.238;2023-12-14T04:43:54;5.36;81.85
66752;SHT31;53663;42.676;23.238;2023-12-14T04:46:19;5.40;81.83
66752;SHT31;53663;42.676;23.238;2023-12-14T04:48:45;5.47;81.56
66752;SHT31;53663;42.676;23.238;2023-12-14T04:51:13;5.52;81.34
66752;SHT31;53663;42.676;23.238;2023-12-14T04:53:39;5.54;81.18
66752;SHT31;53663;42.676;23.238;2023-12-14T04:56:09;5.61;80.93
66752;SHT31;53663;42.676;23.238;2023-12-14T04:58:34;5.61;81.11
66752;SHT31;53663;42.676;23.238;2023-12-14T05:01:00;5.57;80.90
66752;SHT31;53663;42.676;23.238;2023-12-14T05:03:25;5.64;80.85
66752;SHT31;53663;42.676;23.238;2023-12-14T05:05:51;5.64;80.69
66752;SHT31;53663;42.676;23.238;2023-12-14T05:08:16;5.62;80.85
66752;SHT31;53663;42.676;23.238;2023-12-14T05:10:42;5.65;80.91
66752;SHT31;53663;42.676;23.238;2023-12-14T05:13:07;5.67;80.77
66752;SHT31;53663;42.676;23.238;2023-12-14T05:15:34;5.65;80.82
66752;SHT31;53663;42.676;23.238;2023-12-14T05:17:59;5.61;81.20
66752;SHT31;53663;42.676;23.238;2023-12-14T05:20:25;5.54;81.27
66752;SHT31;53663;42.676;23.238;2023-12-14T05:22:50;5.60;81.06
66752;SHT31;53663;42.676;23.238;2023-12-14T05:25:16;5.58;81.06
66752;SHT31;53663;42.676;23.238;2023-12-14T05:27:41;5.64;80.99
66752;SHT31;53663;42.676;23.238;2023-12-14T05:30:07;5.64;80.92
66752;SHT31;53663;42.676;23.238;2023-12-14T05:32:33;5.58;81.03
66752;SHT31;53663;42.676;23.238;2023-12-14T05:35:00;5.67;80.97
66752;SHT31;53663;42.676;23.238;2023-12-14T05:37:25;5.62;80.90
66752;SHT31;53663;42.676;23.238;2023-12-14T05:39:51;5.70;80.57
66752;SHT31;53663;42.676;23.238;2023-12-14T05:42:17;5.81;80.31
66752;SHT31;53663;42.676;23.238;2023-12-14T05:44:43;5.67;80.64
66752;SHT31;53663;42.676;23.238;2023-12-14T05:47:10;5.71;80.72
66752;SHT31;53663;42.676;23.238;2023-12-14T05:49:36;5.74;80.41
66752;SHT31;53663;42.676;23.238;2023-12-14T05:52:03;5.65;80.70
66752;SHT31;53663;42.676;23.238;2023-12-14T05:54:28;5.67;80.76
66752;SHT31;53663;42.676;23.238;2023-12-14T05:56:54;5.72;80.69
66752;SHT31;53663;42.676;23.238;2023-12-14T05:59:19;5.72;80.51
66752;SHT31;53663;42.676;23.238;2023-12-14T06:01:45;5.64;80.60
66752;SHT31;53663;42.676;23.238;2023-12-14T06:04:10;5.54;81.42
66752;SHT31;53663;42.676;23.238;2023-12-14T06:06:39;5.54;81.56
66752;SHT31;53663;42.676;23.238;2023-12-14T06:09:05;5.62;81.35
66752;SHT31;53663;42.676;23.238;2023-12-14T06:11:33;5.77;80.92
66752;SHT31;53663;42.676;23.238;2023-12-14T06:13:59;5.81;80.47
66752;SHT31;53663;42.676;23.238;2023-12-14T06:16:25;5.88;80.34
66752;SHT31;53663;42.676;23.238;2023-12-14T06:18:50;5.88;79.96
66752;SHT31;53663;42.676;23.238;2023-12-14T06:21:16;5.95;79.97
66752;SHT31;53663;42.676;23.238;2023-12-14T06:23:41;6.08;79.34
66752;SHT31;53663;42.676;23.238;2023-12-14T06:26:07;6.13;79.09
66752;SHT31;53663;42.676;23.238;2023-12-14T06:28:32;6.27;78.68
66752;SHT31;53663;42.676;23.238;2023-12-14T06:30:58;6.22;79.20
66752;SHT31;53663;42.676;23.238;2023-12-14T06:33:23;6.29;78.39
66752;SHT31;53663;42.676;23.238;2023-12-14T06:35:49;6.44;77.90
66752;SHT31;53663;42.676;23.238;2023-12-14T06:38:15;6.29;78.55
66752;SHT31;53663;42.676;23.238;2023-12-14T06:40:41;6.34;78.51
66752;SHT31;53663;42.676;23.238;2023-12-14T06:43:06;6.50;78.27
66752;SHT31;53663;42.676;23.238;2023-12-14T06:45:32;6.60;78.54
66752;SHT31;53663;42.676;23.238;2023-12-14T06:47:57;6.71;80.10
66752;SHT31;53663;42.676;23.238;2023-12-14T06:50:23;6.84;77.27
66752;SHT31;53663;42.676;23.238;2023-12-14T06:52:48;6.98;77.01
66752;SHT31;53663;42.676;23.238;2023-12-14T06:55:14;6.78;76.50
66752;SHT31;53663;42.676;23.238;2023-12-14T06:57:43;6.97;75.71
66752;SHT31;53663;42.676;23.238;2023-12-14T07:00:09;7.11;75.83
66752;SHT31;53663;42.676;23.238;2023-12-14T07:02:35;7.18;75.91
66752;SHT31;53663;42.676;23.238;2023-12-14T07:05:01;7.35;74.59
66752;SHT31;53663;42.676;23.238;2023-12-14T07:07:26;7.75;73.78
66752;SHT31;53663;42.676;23.238;2023-12-14T07:09:52;8.12;73.50
66752;SHT31;53663;42.676;23.238;2023-12-14T07:12:17;8.26;71.40
66752;SHT31;53663;42.676;23.238;2023-12-14T07:14:43;8.36;70.48
66752;SHT31;53663;42.676;23.238;2023-12-14T07:17:08;8.38;70.50
66752;SHT31;53663;42.676;23.238;2023-12-14T07:19:34;8.42;71.72
66752;SHT31;53663;42.676;23.238;2023-12-14T07:22:01;8.64;71.19
66752;SHT31;53663;42.676;23.238;2023-12-14T07:24:26;8.76;69.97
66752;SHT31;53663;42.676;23.238;2023-12-14T07:26:52;8.83;68.20
66752;SHT31;53663;42.676;23.238;2023-12-14T07:29:17;8.87;68.98
66752;SHT31;53663;42.676;23.238;2023-12-14T07:31:43;9.00;68.43
66752;SHT31;53663;42.676;23.238;2023-12-14T07:34:08;9.03;68.13
66752;SHT31;53663;42.676;23.238;2023-12-14T07:36:34;9.43;67.60
66752;SHT31;53663;42.676;23.238;2023-12-14T07:38:59;9.25;68.89
66752;SHT31;53663;42.676;23.238;2023-12-14T07:41:26;9.51;66.56
66752;SHT31;53663;42.676;23.238;2023-12-14T07:43:55;9.45;66.63
66752;SHT31;53663;42.676;23.238;2023-12-14T07:46:21;9.70;66.38
66752;SHT31;53663;42.676;23.238;2023-12-14T07:49:01;9.93;64.98
66752;SHT31;53663;42.676;23.238;2023-12-14T07:51:27;10.13;64.97
66752;SHT31;53663;42.676;23.238;2023-12-14T07:53:55;10.33;63.71
66752;SHT31;53663;42.676;23.238;2023-12-14T07:56:21;10.44;63.83
66752;SHT31;53663;42.676;23.238;2023-12-14T07:58:50;10.66;63.33
66752;SHT31;53663;42.676;23.238;2023-12-14T08:01:16;11.57;61.70
66752;SHT31;53663;42.676;23.238;2023-12-14T08:03:41;11.96;59.52
66752;SHT31;53663;42.676;23.238;2023-12-14T08:06:07;12.54;57.82
66752;SHT31;53663;42.676;23.238;2023-12-14T08:08:33;12.71;57.60
66752;SHT31;53663;42.676;23.238;2023-12-14T08:10:58;12.56;57.08
66752;SHT31;53663;42.676;23.238;2023-12-14T08:13:24;11.51;60.97
66752;SHT31;53663;42.676;23.238;2023-12-14T08:15:49;11.09;61.75
66752;SHT31;53663;42.676;23.238;2023-12-14T08:18:15;11.24;61.99
66752;SHT31;53663;42.676;23.238;2023-12-14T08:20:40;11.22;62.69
66752;SHT31;53663;42.676;23.238;2023-12-14T08:23:06;11.17;62.33
66752;SHT31;53663;42.676;23.238;2023-12-14T08:25:32;10.91;63.73
66752;SHT31;53663;42.676;23.238;2023-12-14T08:27:57;11.16;61.92
66752;SHT31;53663;42.676;23.238;2023-12-14T08:30:23;10.85;63.09
66752;SHT31;53663;42.676;23.238;2023-12-14T08:32:49;10.89;62.20
66752;SHT31;53663;42.676;23.238;2023-12-14T08:35:14;10.86;62.88
66752;SHT31;53663;42.676;23.238;2023-12-14T08:37:40;10.75;63.60
66752;SHT31;53663;42.676;23.238;2023-12-14T08:40:06;10.91;62.60
66752;SHT31;53663;42.676;23.238;2023-12-14T08:42:32;11.06;62.47
66752;SHT31;53663;42.676;23.238;2023-12-14T08:44:58;11.17;63.92
66752;SHT31;53663;42.676;23.238;2023-12-14T08:47:24;11.27;62.43
66752;SHT31;53663;42.676;23.238;2023-12-14T08:49:49;11.33;62.26
66752;SHT31;53663;42.676;23.238;2023-12-14T08:52:15;11.38;61.03
66752;SHT31;53663;42.676;23.238;2023-12-14T08:54:40;11.48;61.08
66752;SHT31;53663;42.676;23.238;2023-12-14T08:57:08;11.78;59.87
66752;SHT31;53663;42.676;23.238;2023-12-14T08:59:35;11.74;60.74
66752;SHT31;53663;42.676;23.238;2023-12-14T09:02:01;12.12;60.06
66752;SHT31;53663;42.676;23.238;2023-12-14T09:04:26;12.33;59.21
66752;SHT31;53663;42.676;23.238;2023-12-14T09:06:52;12.25;58.64
66752;SHT31;53663;42.676;23.238;2023-12-14T09:09:18;12.06;59.80
66752;SHT31;53663;42.676;23.238;2023-12-14T09:11:44;12.28;58.25
66752;SHT31;53663;42.676;23.238;2023-12-14T09:14:10;12.32;58.62
66752;SHT31;53663;42.676;23.238;2023-12-14T09:16:35;11.96;59.06
66752;SHT31;53663;42.676;23.238;2023-12-14T09:19:01;11.89;60.05
66752;SHT31;53663;42.676;23.238;2023-12-14T09:21:27;11.98;59.58
66752;SHT31;53663;42.676;23.238;2023-12-14T09:23:52;12.13;59.53
66752;SHT31;53663;42.676;23.238;2023-12-14T09:26:21;11.86;59.54
66752;SHT31;53663;42.676;23.238;2023-12-14T09:28:46;11.96;59.50
66752;SHT31;53663;42.676;23.238;2023-12-14T09:31:12;12.02;59.21
66752;SHT31;53663;42.676;23.238;2023-12-14T09:33:37;12.02;58.01
66752;SHT31;53663;42.676;23.238;2023-12-14T09:36:03;12.15;58.20
66752;SHT31;53663;42.676;23.238;2023-12-14T09:38:29;12.33;57.95
66752;SHT31;53663;42.676;23.238;2023-12-14T09:40:55;12.68;57.26
66752;SHT31;53663;42.676;23.238;2023-12-14T09:43:20;12.80;57.21
66752;SHT31;53663;42.676;23.238;2023-12-14T09:45:47;12.88;56.37
66752;SHT31;53663;42.676;23.238;2023-12-14T09:48:13;13.16;56.20
66752;SHT31;53663;42.676;23.238;2023-12-14T09:50:40;13.18;55.86
66752;SHT31;53663;42.676;23.238;2023-12-14T09:53:06;13.12;57.64
66752;SHT31;53663;42.676;23.238;2023-12-14T09:55:33;12.74;58.38
66752;SHT31;53663;42.676;23.238;2023-12-14T09:57:58;12.81;57.17
66752;SHT31;53663;42.676;23.238;2023-12-14T10:00:39;12.73;58.20
66752;SHT31;53663;42.676;23.238;2023-12-14T10:03:25;12.84;57.00
66752;SHT31;53663;42.676;23.238;2023-12-14T10:05:55;12.92;56.71
66752;SHT31;53663;42.676;23.238;2023-12-14T10:08:21;12.81;56.55
66752;SHT31;53663;42.676;23.238;2023-12-14T10:10:49;12.61;57.72
66752;SHT31;53663;42.676;23.238;2023-12-14T10:13:14;12.64;56.88
66752;SHT31;53663;42.676;23.238;2023-12-14T10:15:41;12.70;57.01
66752;SHT31;53663;42.676;23.238;2023-12-14T10:18:07;12.53;58.74
66752;SHT31;53663;42.676;23.238;2023-12-14T10:20:33;12.34;59.45
66752;SHT31;53663;42.676;23.238;2023-12-14T10:22:58;12.41;59.18
66752;SHT31;53663;42.676;23.238;2023-12-14T10:25:24;12.50;59.24
66752;SHT31;53663;42.676;23.238;2023-12-14T10:27:52;12.32;59.39
66752;SHT31;53663;42.676;23.238;2023-12-14T10:30:18;12.32;60.07
66752;SHT31;53663;42.676;23.238;2023-12-14T10:32:47;12.23;61.86
66752;SHT31;53663;42.676;23.238;2023-12-14T10:35:14;12.19;62.11
66752;SHT31;53663;42.676;23.238;2023-12-14T10:37:42;12.13;63.26
66752;SHT31;53663;42.676;23.238;2023-12-14T10:40:13;12.15;63.90
66752;SHT31;53663;42.676;23.238;2023-12-14T10:42:42;12.01;64.81
66752;SHT31;53663;42.676;23.238;2023-12-14T10:45:11;12.08;64.89
66752;SHT31;53663;42.676;23.238;2023-12-14T10:47:39;12.03;65.55
66752;SHT31;53663;42.676;23.238;2023-12-14T10:50:08;12.03;65.87
66752;SHT31;53663;42.676;23.238;2023-12-14T10:52:37;11.99;66.47
66752;SHT31;53663;42.676;23.238;2023-12-14T10:55:07;11.91;67.07
66752;SHT31;53663;42.676;23.238;2023-12-14T10:57:35;11.89;67.50
66752;SHT31;53663;42.676;23.238;2023-12-14T11:00:04;11.82;68.24
66752;SHT31;53663;42.676;23.238;2023-12-14T11:02:40;11.79;68.39
66752;SHT31;53663;42.676;23.238;2023-12-14T11:05:06;11.60;69.33
66752;SHT31;53663;42.676;23.238;2023-12-14T11:08:03;11.37;70.19
66752;SHT31;53663;42.676;23.238;2023-12-14T11:10:41;11.19;69.42
66752;SHT31;53663;42.676;23.238;2023-12-14T11:13:08;11.10;69.29
66752;SHT31;53663;42.676;23.238;2023-12-14T11:15:47;10.97;69.06
66752;SHT31;53663;42.676;23.238;2023-12-14T11:20:59;10.68;69.62
66752;SHT31;53663;42.676;23.238;2023-12-14T11:25:52;10.40;69.84
66752;SHT31;53663;42.676;23.238;2023-12-14T11:28:19;10.18;70.09
66752;SHT31;53663;42.676;23.238;2023-12-14T11:30:46;10.20;69.63
66752;SHT31;53663;42.676;23.238;2023-12-14T11:33:13;10.16;69.42
66752;SHT31;53663;42.676;23.238;2023-12-14T11:35:39;10.13;69.23
66752;SHT31;53663;42.676;23.238;2023-12-14T11:38:05;10.08;69.17
66752;SHT31;53663;42.676;23.238;2023-12-14T11:40:36;10.11;68.91
66752;SHT31;53663;42.676;23.238;2023-12-14T11:43:02;10.14;68.96
66752;SHT31;53663;42.676;23.238;2023-12-14T11:45:39;10.13;68.60
66752;SHT31;53663;42.676;23.238;2023-12-14T11:48:07;10.04;68.56
66752;SHT31;53663;42.676;23.238;2023-12-14T11:50:34;10.10;68.53
66752;SHT31;53663;42.676;23.238;2023-12-14T11:53:00;10.06;68.55
66752;SHT31;53663;42.676;23.238;2023-12-14T11:55:27;10.04;68.78
66752;SHT31;53663;42.676;23.238;2023-12-14T11:57:53;10.06;68.56
66752;SHT31;53663;42.676;23.238;2023-12-14T12:00:23;10.00;67.73
66752;SHT31;53663;42.676;23.238;2023-12-14T12:02:49;9.89;67.88
66752;SHT31;53663;42.676;23.238;2023-12-14T12:05:15;9.89;67.97
66752;SHT31;53663;42.676;23.238;2023-12-14T12:07:44;9.78;67.73
66752;SHT31;53663;42.676;23.238;2023-12-14T12:10:10;9.70;67.49
66752;SHT31;53663;42.676;23.238;2023-12-14T12:12:36;9.56;67.66
66752;SHT31;53663;42.676;23.238;2023-12-14T12:15:03;9.49;68.00
66752;SHT31;53663;42.676;23.238;2023-12-14T12:17:29;9.45;68.08
66752;SHT31;53663;42.676;23.238;2023-12-14T12:19:54;9.42;67.71
66752;SHT31;53663;42.676;23.238;2023-12-14T12:22:20;9.42;67.81
66752;SHT31;53663;42.676;23.238;2023-12-14T12:24:45;9.41;67.85
66752;SHT31;53663;42.676;23.238;2023-12-14T12:27:11;9.39;67.86
66752;SHT31;53663;42.676;23.238;2023-12-14T12:29:36;9.27;67.90
66752;SHT31;53663;42.676;23.238;2023-12-14T12:32:02;9.28;68.20
66752;SHT31;53663;42.676;23.238;2023-12-14T12:34:28;9.28;68.33
66752;SHT31;53663;42.676;23.238;2023-12-14T12:36:54;9.27;68.12
66752;SHT31;53663;42.676;23.238;2023-12-14T12:39:20;9.17;68.32
66752;SHT31;53663;42.676;23.238;2023-12-14T12:41:45;9.15;68.37
66752;SHT31;53663;42.676;23.238;2023-12-14T12:44:11;9.10;68.47
66752;SHT31;53663;42.676;23.238;2023-12-14T12:46:37;9.07;68.70
66752;SHT31;53663;42.676;23.238;2023-12-14T12:49:04;9.03;68.91
66752;SHT31;53663;42.676;23.238;2023-12-14T12:51:30;8.96;69.47
66752;SHT31;53663;42.676;23.238;2023-12-14T12:53:57;8.80;69.50
66752;SHT31;53663;42.676;23.238;2023-12-14T12:56:28;8.90;69.59
66752;SHT31;53663;42.676;23.238;2023-12-14T12:58:54;8.93;69.45
66752;SHT31;53663;42.676;23.238;2023-12-14T13:01:21;8.88;69.61
66752;SHT31;53663;42.676;23.238;2023-12-14T13:03:52;8.80;69.88
66752;SHT31;53663;42.676;23.238;2023-12-14T13:06:18;8.84;69.97
66752;SHT31;53663;42.676;23.238;2023-12-14T13:08:43;8.85;69.83
66752;SHT31;53663;42.676;23.238;2023-12-14T13:11:09;8.81;69.91
66752;SHT31;53663;42.676;23.238;2023-12-14T13:13:34;8.69;70.23
66752;SHT31;53663;42.676;23.238;2023-12-14T13:16:00;8.60;70.49
66752;SHT31;53663;42.676;23.238;2023-12-14T13:18:25;8.64;70.26
66752;SHT31;53663;42.676;23.238;2023-12-14T13:20:51;8.59;70.33
66752;SHT31;53663;42.676;23.238;2023-12-14T13:23:16;8.54;70.43
66752;SHT31;53663;42.676;23.238;2023-12-14T13:25:42;8.49;70.32
66752;SHT31;53663;42.676;23.238;2023-12-14T13:28:10;8.50;70.43
66752;SHT31;53663;42.676;23.238;2023-12-14T13:30:35;8.43;70.18
66752;SHT31;53663;42.676;23.238;2023-12-14T13:33:01;8.32;70.28
66752;SHT31;53663;42.676;23.238;2023-12-14T13:35:27;8.28;70.27
66752;SHT31;53663;42.676;23.238;2023-12-14T13:37:53;8.28;70.41
66752;SHT31;53663;42.676;23.238;2023-12-14T13:40:19;8.24;70.59
66752;SHT31;53663;42.676;23.238;2023-12-14T13:42:44;8.20;70.36
66752;SHT31;53663;42.676;23.238;2023-12-14T13:45:10;8.15;70.54
66752;SHT31;53663;42.676;23.238;2023-12-14T13:47:36;8.21;69.97
66752;SHT31;53663;42.676;23.238;2023-12-14T13:50:01;8.15;70.22
66752;SHT31;53663;42.676;23.238;2023-12-14T13:52:29;8.22;70.03
66752;SHT31;53663;42.676;23.238;2023-12-14T13:54:55;8.18;69.76
66752;SHT31;53663;42.676;23.238;2023-12-14T13:57:22;8.26;69.62
66752;SHT31;53663;42.676;23.238;2023-12-14T13:59:47;8.25;69.62
66752;SHT31;53663;42.676;23.238;2023-12-14T14:02:13;8.29;69.38
66752;SHT31;53663;42.676;23.238;2023-12-14T14:04:39;8.15;69.71
66752;SHT31;53663;42.676;23.238;2023-12-14T14:07:05;8.14;69.96
66752;SHT31;53663;42.676;23.238;2023-12-14T14:09:30;8.20;69.63
66752;SHT31;53663;42.676;23.238;2023-12-14T14:11:58;8.15;69.48
66752;SHT31;53663;42.676;23.238;2023-12-14T14:14:23;8.12;69.66
66752;SHT31;53663;42.676;23.238;2023-12-14T14:16:49;8.14;69.29
66752;SHT31;53663;42.676;23.238;2023-12-14T14:19:15;8.11;69.49
66752;SHT31;53663;42.676;23.238;2023-12-14T14:21:41;8.14;69.68
66752;SHT31;53663;42.676;23.238;2023-12-14T14:24:06;8.18;69.68
66752;SHT31;53663;42.676;23.238;2023-12-14T14:26:32;8.05;69.33
66752;SHT31;53663;42.676;23.238;2023-12-14T14:28:57;8.01;69.95
66752;SHT31;53663;42.676;23.238;2023-12-14T14:31:25;8.06;70.12
66752;SHT31;53663;42.676;23.238;2023-12-14T14:33:55;7.99;70.30
66752;SHT31;53663;42.676;23.238;2023-12-14T14:36:21;7.97;70.83
66752;SHT31;53663;42.676;23.238;2023-12-14T14:38:47;7.99;70.39
66752;SHT31;53663;42.676;23.238;2023-12-14T14:41:12;7.91;70.30
66752;SHT31;53663;42.676;23.238;2023-12-14T14:43:38;7.57;71.61
66752;SHT31;53663;42.676;23.238;2023-12-14T14:46:03;7.74;71.84
66752;SHT31;53663;42.676;23.238;2023-12-14T14:48:29;7.80;71.51
66752;SHT31;53663;42.676;23.238;2023-12-14T14:50:54;7.95;71.67
66752;SHT31;53663;42.676;23.238;2023-12-14T14:53:20;7.95;72.29
66752;SHT31;53663;42.676;23.238;2023-12-14T14:55:45;7.87;72.63
66752;SHT31;53663;42.676;23.238;2023-12-14T14:58:11;7.97;73.46
66752;SHT31;53663;42.676;23.238;2023-12-14T15:00:36;8.09;73.25
66752;SHT31;53663;42.676;23.238;2023-12-14T15:03:04;8.08;73.26
66752;SHT31;53663;42.676;23.238;2023-12-14T15:05:33;8.15;73.51
66752;SHT31;53663;42.676;23.238;2023-12-14T15:07:59;8.16;73.62
66752;SHT31;53663;42.676;23.238;2023-12-14T15:10:25;8.20;73.93
66752;SHT31;53663;42.676;23.238;2023-12-14T15:12:50;8.22;73.69
66752;SHT31;53663;42.676;23.238;2023-12-14T15:15:15;8.26;73.60
66752;SHT31;53663;42.676;23.238;2023-12-14T15:17:42;8.24;73.64
66752;SHT31;53663;42.676;23.238;2023-12-14T15:20:07;8.24;73.81
66752;SHT31;53663;42.676;23.238;2023-12-14T15:22:35;8.18;73.58
66752;SHT31;53663;42.676;23.238;2023-12-14T15:25:00;8.20;73.60
66752;SHT31;53663;42.676;23.238;2023-12-14T15:27:26;8.18;73.69